Impacts TAF Board
For situational awareness. Not to be used for flight planning purposes.
IDs:

KISP - Islip/Macarthur Arpt, NY, US

Issued at 2032 UTC 31 Jan 2023
Updated at 2051 UTC 31 Jan 2023
Potential Impact None Slight Moderate High
Time1956Z 31/21Z 31/22Z 31/23Z 01/00Z 01/01Z 01/02Z 01/03Z 01/04Z 01/05Z 01/06Z 01/07Z 01/08Z 01/09Z>>
Type OBS PRVL
  [TEMP]  
PRVL PRVL PRVL PRVL PRVL PRVL PRVL PRVL PRVL
  [PRB30]  
PRVL
  [PRB30]  
PRVL
  [PRB30]  
PRVL
  [PRB30]  
VIS 9 >6
  [6]  
>6 >6 >6 >6 >6 >6 >6 >6 >6
  [2]  
>6
  [2]  
>6
  [2]  
>6
  [2]  
CIG 65 60
  [25]  
60 60 60 60 60 60 60 60 60
  [15]  
60
  [15]  
60
  [15]  
60
  [15]  
Cover OVC OVC
  [BKN]  
OVC OVC OVC OVC BKN BKN BKN BKN BKN
  [BKN]  
BKN
  [BKN]  
BKN
  [BKN]  
BKN
  [BKN]  
FltCat VFR VFR
  [MVFR]  
VFR VFR VFR VFR VFR VFR VFR VFR VFR
  [IFR]  
VFR
  [IFR]  
VFR
  [IFR]  
VFR
  [IFR]  
WX -- --
  [-SN]  
-- -- -- -- -- -- -- -- --
  [-SN]  
--
  [-SN]  
--
  [-SN]  
--
  [-SN]  
WDir 350 340
[340]
340 340 340 340 20 20 20 20 20
[20]
20
[20]
20
[20]
20
[20]
WSpd 7 7
  [7]  
7 7 7 7 6 6 6 6 6
  [6]  
6
  [6]  
6
  [6]  
6
  [6]  
WGst -- --
  [--]  
-- -- -- -- -- -- -- -- --
  [--]  
--
  [--]  
--
  [--]  
--
  [--]  
WSHgt -- --
[--]
-- -- -- -- -- -- -- -- --
[--]
--
[--]
--
[--]
--
[--]
WSDir -- --
[--]
-- -- -- -- -- -- -- -- --
[--]
--
[--]
--
[--]
--
[--]
WSSpd -- --
[--]
-- -- -- -- -- -- -- -- --
[--]
--
[--]
--
[--]
--
[--]

NOTE: LAMP data beyond the time of the TAF data is denoted as LAMP in Type and colored magenta.

Raw TAF
KISP 312032Z 3121/0118 34007KT P6SM SCT035 OVC060
  TEMPO 3121/3122 6SM -SN BKN025
  FM010200 02006KT P6SM FEW025 BKN060
  PROB30 0106/0112 2SM -SN BKN015
  FM011300 34009KT P6SM SCT035 BKN250


Raw METAR
KISP 311956Z 35007KT 9SM SCT035 BKN065 OVC090 03/M04 A3016 RMK AO2 SNE55 SLP214 P0000 T00331039
KISP 311856Z 33004KT 9SM -SN FEW022 SCT033 OVC065 03/M02 A3017 RMK AO2 SNB24 SLP216 P0000 T00281022
KISP 311824Z 31009KT 10SM -SN SCT022 BKN070 OVC085 03/M03 A3017 RMK AO2 SNB24 P0000 T00281028
KISP 311756Z 33007KT 10SM SCT022 BKN065 OVC085 02/M02 A3018 RMK AO2 SLP220 VCSH W 60005 I6002 T00221022 10022 20006 58011

METAR Board
Radar Display
Forecast Discussion

For situational awareness. Not to be used for flight planning purposes.